Time;durP1;ratioP1;P1;durP2;ratioP2;P2;SDS_P1;SDS_P2;PMS_P1;PMS_P2;Temp;Humidity;BMP_temperature;BMP_pressure;BME280_temperature;BME280_humidity;BME280_pressure;Samples;Min_cycle;Max_cycle;Signal;HPM_P1;HPM_P2
2021/06/14 00:00:51;;;;;;;5.13;4.63;;;19.40;56.50;;;;;;5115090;28;20504;-74
2021/06/14 00:03:18;;;;;;;4.87;4.37;;;19.30;56.60;;;;;;5115092;28;20542;-74
2021/06/14 00:05:46;;;;;;;5.40;4.57;;;19.30;57.30;;;;;;5115756;28;20952;-74
2021/06/14 00:08:14;;;;;;;5.07;4.57;;;19.30;56.90;;;;;;5114711;28;20442;-74
2021/06/14 00:10:42;;;;;;;7.70;4.20;;;19.20;57.00;;;;;;5114977;28;20443;-74
2021/06/14 00:13:11;;;;;;;7.33;4.93;;;19.20;57.10;;;;;;5114901;28;20438;-74
2021/06/14 00:15:40;;;;;;;6.00;4.27;;;19.20;57.20;;;;;;5114512;28;20828;-73
2021/06/14 00:18:08;;;;;;;7.30;5.10;;;19.10;57.30;;;;;;5114879;28;20454;-74
2021/06/14 00:20:36;;;;;;;6.90;5.10;;;19.00;57.30;;;;;;5114368;28;20843;-73
2021/06/14 00:23:04;;;;;;;6.50;5.40;;;19.10;57.60;;;;;;5114444;28;20439;-74
2021/06/14 00:25:33;;;;;;;4.87;4.47;;;19.00;57.60;;;;;;5114295;28;20968;-74
2021/06/14 00:28:01;;;;;;;5.43;4.93;;;19.00;57.80;;;;;;5114566;28;20451;-74
2021/06/14 00:30:32;;;;;;;7.60;4.30;;;18.90;57.70;;;;;;5114598;28;20424;-74
2021/06/14 00:32:59;;;;;;;5.27;4.50;;;18.90;57.80;;;;;;5114289;28;20904;-74
2021/06/14 00:35:26;;;;;;;6.83;4.80;;;18.90;57.90;;;;;;5114429;28;20474;-74
2021/06/14 00:37:53;;;;;;;6.20;4.60;;;18.90;58.00;;;;;;5114490;28;20435;-74
2021/06/14 00:40:21;;;;;;;4.87;4.20;;;18.90;58.10;;;;;;5114183;28;20474;-73
2021/06/14 00:42:48;;;;;;;5.30;4.30;;;18.90;58.20;;;;;;5114381;28;20447;-73
2021/06/14 00:45:18;;;;;;;5.47;4.53;;;18.80;58.00;;;;;;5113466;28;20964;-73
2021/06/14 00:47:47;;;;;;;6.83;4.77;;;18.80;57.80;;;;;;5114554;28;20443;-74
2021/06/14 00:50:18;;;;;;;5.70;4.27;;;18.70;57.60;;;;;;5114081;28;20932;-73
2021/06/14 00:52:45;;;;;;;5.97;4.90;;;18.70;57.60;;;;;;5114339;28;20501;-74
2021/06/14 00:55:18;;;;;;;6.63;4.57;;;18.70;57.80;;;;;;5114296;28;20467;-73
2021/06/14 00:57:45;;;;;;;7.20;4.73;;;18.70;58.00;;;;;;5114038;28;20912;-74
2021/06/14 01:00:13;;;;;;;6.40;5.17;;;18.60;58.10;;;;;;5113897;28;20474;-74
2021/06/14 01:02:39;;;;;;;4.80;4.30;;;18.60;58.30;;;;;;5114238;28;20465;-74
2021/06/14 01:05:10;;;;;;;5.13;4.63;;;18.50;58.10;;;;;;5113831;28;21078;-73
2021/06/14 01:07:37;;;;;;;9.23;4.93;;;18.50;58.10;;;;;;5114257;28;20781;-73
2021/06/14 01:10:05;;;;;;;5.33;4.80;;;18.50;58.20;;;;;;5114206;28;20438;-73
2021/06/14 01:12:36;;;;;;;8.53;4.97;;;18.40;58.20;;;;;;5114148;28;20443;-73
2021/06/14 01:15:08;;;;;;;5.70;4.23;;;18.40;58.30;;;;;;5113681;28;20964;-74
2021/06/14 01:17:40;;;;;;;8.10;4.47;;;18.40;58.40;;;;;;5114143;28;20501;-73
2021/06/14 01:20:37;;;;;;;5.93;4.87;;;18.30;58.40;;;;;;5114288;28;20462;-74
2021/06/14 01:23:21;;;;;;;3.97;3.57;;;18.30;58.50;;;;;;5104805;28;20451;-74
2021/06/14 01:25:51;;;;;;;5.67;4.43;;;18.30;58.60;;;;;;5113871;28;20497;-73
2021/06/14 01:28:22;;;;;;;4.40;3.80;;;18.20;58.30;;;;;;5113598;28;20423;-73
2021/06/14 01:30:51;;;;;;;6.07;4.30;;;18.20;58.50;;;;;;5113640;28;20415;-73
2021/06/14 01:33:21;;;;;;;5.20;4.43;;;18.10;58.30;;;;;;5113546;28;20936;-73
2021/06/14 01:35:51;;;;;;;8.00;4.90;;;18.10;58.40;;;;;;5113716;28;20839;-73
2021/06/14 01:38:19;;;;;;;5.63;4.90;;;18.10;58.60;;;;;;5113496;28;20441;-74
2021/06/14 01:40:49;;;;;;;6.63;4.30;;;18.10;58.70;;;;;;5113633;28;20482;-74
2021/06/14 01:43:18;;;;;;;11.43;4.70;;;18.10;58.70;;;;;;5113717;28;20431;-73
2021/06/14 01:45:50;;;;;;;4.40;4.00;;;18.00;58.50;;;;;;5113611;28;20458;-73
2021/06/14 01:48:18;;;;;;;4.53;3.93;;;17.90;58.40;;;;;;5113719;28;20427;-73
2021/06/14 01:50:45;;;;;;;5.67;4.13;;;17.90;58.60;;;;;;5114759;28;20442;-74
2021/06/14 01:53:12;;;;;;;5.27;4.03;;;17.80;58.60;;;;;;5113392;28;20465;-74
2021/06/14 01:55:40;;;;;;;5.17;4.20;;;17.80;58.80;;;;;;5113519;28;20466;-74
2021/06/14 01:58:07;;;;;;;8.00;5.37;;;17.80;58.60;;;;;;5116927;28;20438;-73
2021/06/14 02:00:36;;;;;;;5.13;4.60;;;17.80;58.60;;;;;;5117505;28;20501;-73
2021/06/14 02:03:07;;;;;;;5.30;4.40;;;17.80;58.70;;;;;;5117474;28;20442;-73
2021/06/14 02:05:35;;;;;;;6.40;5.00;;;17.80;59.00;;;;;;5117177;28;20466;-73
2021/06/14 02:08:02;;;;;;;9.60;7.23;;;17.80;59.00;;;;;;5117438;28;20438;-73
2021/06/14 02:10:31;;;;;;;11.90;5.67;;;17.80;59.30;;;;;;5117326;28;20462;-73
2021/06/14 02:12:59;;;;;;;6.00;5.17;;;17.70;59.30;;;;;;5117389;28;20446;-73
2021/06/14 02:15:26;;;;;;;6.83;5.00;;;17.80;59.50;;;;;;5117202;28;20466;-73
2021/06/14 02:17:55;;;;;;;12.53;3.90;;;17.70;59.50;;;;;;5117229;28;20446;-73
2021/06/14 02:20:23;;;;;;;7.73;4.60;;;17.70;59.50;;;;;;5117064;28;20478;-73
2021/06/14 02:22:50;;;;;;;4.97;4.57;;;17.70;59.40;;;;;;5117128;28;20446;-73
2021/06/14 02:25:19;;;;;;;5.77;4.53;;;17.60;59.50;;;;;;5117111;28;20470;-73
2021/06/14 02:27:45;;;;;;;10.03;4.80;;;17.60;59.70;;;;;;5116738;28;20916;-74
2021/06/14 02:30:15;;;;;;;6.53;5.20;;;17.60;59.80;;;;;;5116927;28;20439;-74
2021/06/14 02:32:42;;;;;;;7.93;5.53;;;17.60;60.10;;;;;;5116913;28;20451;-74
2021/06/14 02:35:12;;;;;;;9.30;4.37;;;17.50;60.20;;;;;;5116563;28;20454;-73
2021/06/14 02:37:45;;;;;;;5.90;4.27;;;17.40;59.70;;;;;;5116772;28;20446;-73
2021/06/14 02:40:14;;;;;;;3.53;3.23;;;17.40;59.50;;;;;;5116891;28;20496;-73
2021/06/14 02:42:41;;;;;;;3.63;3.33;;;17.30;59.50;;;;;;5116475;28;20813;-73
2021/06/14 02:45:09;;;;;;;7.70;4.37;;;17.20;59.40;;;;;;5116659;28;20474;-73
2021/06/14 02:47:37;;;;;;;6.53;4.00;;;17.30;59.70;;;;;;5116675;28;20447;-73
2021/06/14 02:50:05;;;;;;;6.47;4.00;;;17.20;59.70;;;;;;5116233;28;20450;-74
2021/06/14 02:52:34;;;;;;;5.10;4.20;;;17.20;59.70;;;;;;5116344;28;20442;-73
2021/06/14 02:55:07;;;;;;;7.30;4.10;;;17.20;59.70;;;;;;5116412;28;20486;-73
2021/06/14 02:57:35;;;;;;;6.47;4.10;;;17.10;59.90;;;;;;5116540;28;20787;-73
2021/06/14 03:00:06;;;;;;;7.10;4.20;;;17.00;59.80;;;;;;5116311;28;20447;-73
2021/06/14 03:02:33;;;;;;;6.40;4.47;;;17.00;60.10;;;;;;5116137;28;20932;-73
2021/06/14 03:04:59;;;;;;;8.40;5.33;;;16.90;60.20;;;;;;5116487;28;20459;-74
2021/06/14 03:07:27;;;;;;;8.67;5.30;;;16.90;60.30;;;;;;5116300;28;20434;-73
2021/06/14 03:09:55;;;;;;;5.27;4.40;;;16.80;60.20;;;;;;5115499;28;20488;-73
2021/06/14 03:12:26;;;;;;;6.70;4.70;;;16.80;60.40;;;;;;5115882;28;20933;-73
2021/06/14 03:14:53;;;;;;;6.80;4.77;;;16.80;60.80;;;;;;5115901;28;20473;-73
2021/06/14 03:17:21;;;;;;;6.63;4.27;;;16.80;60.90;;;;;;5116117;28;20450;-73
2021/06/14 03:19:48;;;;;;;8.17;4.50;;;16.80;60.90;;;;;;5116133;28;20439;-73
2021/06/14 03:22:15;;;;;;;6.43;4.70;;;16.70;60.90;;;;;;5115989;28;20435;-73
2021/06/14 03:24:43;;;;;;;11.53;5.40;;;16.70;61.20;;;;;;5115859;28;20481;-73
2021/06/14 03:27:11;;;;;;;7.77;5.60;;;16.70;61.20;;;;;;5115897;28;20443;-73
2021/06/14 03:29:40;;;;;;;11.57;5.90;;;16.60;60.90;;;;;;5116083;28;20815;-72
2021/06/14 03:32:08;;;;;;;10.63;5.30;;;16.50;61.20;;;;;;5115842;28;20422;-72
2021/06/14 03:34:37;;;;;;;6.97;4.87;;;16.50;61.30;;;;;;5115727;28;20463;-72
2021/06/14 03:37:05;;;;;;;5.93;5.23;;;16.50;61.50;;;;;;5115776;28;20427;-72
2021/06/14 03:39:32;;;;;;;10.07;6.20;;;16.50;61.60;;;;;;5115674;28;20447;-73
2021/06/14 03:41:59;;;;;;;7.50;6.03;;;16.50;61.60;;;;;;5115266;28;20990;-74
2021/06/14 03:44:26;;;;;;;6.00;4.73;;;16.50;61.70;;;;;;5115544;28;20466;-74
2021/06/14 03:46:54;;;;;;;6.00;5.10;;;16.50;61.90;;;;;;5115577;28;20445;-73
2021/06/14 03:49:21;;;;;;;15.27;5.87;;;16.50;62.30;;;;;;5115185;28;20449;-74
2021/06/14 03:51:48;;;;;;;9.17;6.20;;;16.50;62.30;;;;;;5115401;28;20435;-74
2021/06/14 03:54:15;;;;;;;7.30;6.07;;;16.50;62.50;;;;;;5115013;28;20478;-74
2021/06/14 03:56:41;;;;;;;7.07;5.90;;;16.50;63.50;;;;;;5114902;28;20450;-72
2021/06/14 03:59:08;;;;;;;5.30;4.73;;;16.50;62.60;;;;;;5115345;28;20443;-72
2021/06/14 04:01:35;;;;;;;8.77;6.47;;;16.50;62.60;;;;;;5114816;28;20999;-72
2021/06/14 04:06:59;;;;;;;7.33;5.37;;;16.50;62.80;;;;;;5032742;28;20450;-72
2021/06/14 04:09:26;;;;;;;7.83;5.43;;;16.50;62.70;;;;;;5094944;28;20575;-73
2021/06/14 04:11:53;;;;;;;7.53;5.73;;;16.50;63.00;;;;;;5115002;28;20439;-74
2021/06/14 04:14:20;;;;;;;8.40;5.97;;;16.40;63.10;;;;;;5115045;28;20463;-73
2021/06/14 04:16:47;;;;;;;7.00;5.50;;;16.50;63.40;;;;;;5115002;28;20419;-73
2021/06/14 04:19:15;;;;;;;7.90;4.83;;;16.50;63.50;;;;;;5114748;28;20439;-74
2021/06/14 04:21:41;;;;;;;6.20;5.43;;;16.50;63.60;;;;;;5113560;28;21021;-73
2021/06/14 04:24:09;;;;;;;9.30;5.40;;;16.50;63.90;;;;;;5114723;28;20463;-73
2021/06/14 04:26:36;;;;;;;6.50;5.50;;;16.50;64.30;;;;;;5114696;28;20515;-74
2021/06/14 04:29:03;;;;;;;9.70;5.97;;;16.50;64.60;;;;;;5114404;28;20450;-73
2021/06/14 04:31:30;;;;;;;6.40;5.50;;;16.50;64.70;;;;;;5114586;28;20445;-78
2021/06/14 04:33:57;;;;;;;10.73;5.13;;;16.50;65.10;;;;;;5114222;28;21014;-75
2021/06/14 04:36:25;;;;;;;6.17;5.10;;;16.50;65.70;;;;;;5114553;28;20807;-75
2021/06/14 04:38:51;;;;;;;9.03;6.17;;;16.50;66.00;;;;;;5114448;28;20449;-75
2021/06/14 04:41:18;;;;;;;6.60;5.90;;;16.60;67.00;;;;;;5114367;28;20580;-75
2021/06/14 04:43:45;;;;;;;8.40;5.67;;;16.60;66.60;;;;;;5114214;28;20445;-75
2021/06/14 04:46:12;;;;;;;6.80;5.90;;;16.70;67.80;;;;;;5114089;28;20439;-75
2021/06/14 04:48:38;;;;;;;10.07;6.13;;;16.90;67.40;;;;;;5114441;28;20450;-74
2021/06/14 04:51:05;;;;;;;10.37;5.90;;;17.00;67.30;;;;;;5114574;28;20460;-75
2021/06/14 04:53:33;;;;;;;7.63;6.20;;;17.00;67.30;;;;;;5113911;28;20467;-75
2021/06/14 04:56:00;;;;;;;11.07;7.27;;;17.00;68.70;;;;;;5114254;28;20434;-75
2021/06/14 04:58:27;;;;;;;6.80;6.00;;;16.90;69.20;;;;;;5114123;28;20446;-75
2021/06/14 05:00:53;;;;;;;11.83;6.90;;;16.90;69.60;;;;;;5113657;28;20478;-74
2021/06/14 05:03:20;;;;;;;10.33;7.23;;;16.90;69.80;;;;;;5113995;28;20435;-74
2021/06/14 05:05:47;;;;;;;11.67;7.73;;;16.90;69.80;;;;;;5113758;28;21053;-74
2021/06/14 05:08:18;;;;;;;9.77;6.83;;;16.90;69.80;;;;;;5113759;28;20453;-74
2021/06/14 05:10:46;;;;;;;12.97;8.20;;;16.90;70.50;;;;;;5114427;28;20889;-74
2021/06/14 05:13:13;;;;;;;14.30;7.87;;;16.90;71.80;;;;;;5114236;28;20443;-74
2021/06/14 05:15:40;;;;;;;11.37;7.53;;;16.90;71.20;;;;;;5113853;28;20467;-75
2021/06/14 05:18:07;;;;;;;11.10;8.40;;;17.00;71.50;;;;;;5113772;28;20494;-75
2021/06/14 05:20:34;;;;;;;13.40;8.23;;;17.10;71.10;;;;;;5113771;28;20442;-74
2021/06/14 05:23:02;;;;;;;13.77;8.70;;;17.10;70.80;;;;;;5113867;28;20534;-74
2021/06/14 05:25:29;;;;;;;17.17;8.27;;;17.20;70.80;;;;;;5114897;28;20501;-75
2021/06/14 05:27:57;;;;;;;13.23;9.03;;;17.30;70.90;;;;;;5114071;28;20435;-74
2021/06/14 05:30:24;;;;;;;11.00;7.73;;;17.40;71.10;;;;;;5113912;28;20473;-75
2021/06/14 05:32:51;;;;;;;7.77;6.73;;;17.50;71.00;;;;;;5116949;28;20439;-75
2021/06/14 05:35:18;;;;;;;12.90;7.50;;;17.60;70.00;;;;;;5118037;28;20490;-75
2021/06/14 05:37:47;;;;;;;8.03;6.40;;;17.70;70.30;;;;;;5118096;28;20814;-75
2021/06/14 05:40:15;;;;;;;10.87;7.40;;;17.80;69.50;;;;;;5118172;28;20454;-75
2021/06/14 05:42:42;;;;;;;7.37;6.60;;;17.90;69.90;;;;;;5118077;28;20565;-75
2021/06/14 05:45:11;;;;;;;11.20;7.40;;;18.00;70.00;;;;;;5117949;28;20473;-75
2021/06/14 05:47:38;;;;;;;9.83;6.70;;;18.20;68.50;;;;;;5118098;28;20443;-75
2021/06/14 05:50:06;;;;;;;6.97;6.23;;;18.20;67.90;;;;;;5117935;28;20494;-75
2021/06/14 05:52:32;;;;;;;12.20;6.93;;;18.30;68.30;;;;;;5117812;28;20449;-75
2021/06/14 05:54:59;;;;;;;9.20;6.67;;;18.40;67.40;;;;;;5117705;28;20940;-75
2021/06/14 05:57:26;;;;;;;12.10;7.43;;;18.60;66.20;;;;;;5117557;28;20442;-75
2021/06/14 05:59:52;;;;;;;10.63;6.80;;;18.70;67.70;;;;;;5117820;28;20435;-75
2021/06/14 06:02:21;;;;;;;11.50;6.90;;;18.80;67.20;;;;;;5117588;28;20569;-75
2021/06/14 06:04:47;;;;;;;10.20;7.00;;;18.90;66.10;;;;;;5117416;28;20467;-75
2021/06/14 06:07:14;;;;;;;9.93;6.67;;;19.10;66.10;;;;;;5117319;28;20454;-75
2021/06/14 06:09:41;;;;;;;10.03;6.23;;;19.20;66.10;;;;;;5117567;28;20427;-75
2021/06/14 06:12:09;;;;;;;8.90;6.07;;;19.30;65.00;;;;;;5117459;28;20438;-76
2021/06/14 06:14:35;;;;;;;11.67;6.40;;;19.50;64.40;;;;;;5117448;28;20465;-76
2021/06/14 06:17:02;;;;;;;10.30;7.23;;;19.60;62.60;;;;;;5117065;28;20438;-75
2021/06/14 06:19:30;;;;;;;10.17;7.13;;;19.70;61.30;;;;;;5117204;28;20438;-76
2021/06/14 06:21:57;;;;;;;14.00;7.83;;;19.90;61.30;;;;;;5117126;28;20485;-76
2021/06/14 06:24:24;;;;;;;9.87;6.70;;;20.00;59.80;;;;;;5117036;28;20469;-75
2021/06/14 06:26:50;;;;;;;8.60;6.50;;;20.10;59.70;;;;;;5117078;28;20439;-73
2021/06/14 06:29:17;;;;;;;11.90;7.77;;;20.30;59.50;;;;;;5116999;28;20447;-75
2021/06/14 06:31:44;;;;;;;11.87;6.30;;;20.40;58.70;;;;;;5117642;28;20435;-74
2021/06/14 06:34:11;;;;;;;11.23;6.50;;;20.50;58.40;;;;;;5116598;28;20469;-74
2021/06/14 06:36:39;;;;;;;10.90;6.90;;;20.60;57.80;;;;;;5117011;28;20443;-74
2021/06/14 06:39:06;;;;;;;9.23;6.17;;;20.70;57.30;;;;;;5116931;28;20439;-74
2021/06/14 06:41:33;;;;;;;10.90;5.93;;;20.80;58.00;;;;;;5116450;28;20828;-74
2021/06/14 06:43:59;;;;;;;6.20;5.30;;;21.00;58.00;;;;;;5115455;28;20467;-75
2021/06/14 06:46:26;;;;;;;11.50;6.63;;;21.10;57.60;;;;;;5116798;28;20810;-75
2021/06/14 06:48:53;;;;;;;8.30;6.50;;;21.30;57.20;;;;;;5116633;28;20917;-75
2021/06/14 06:51:19;;;;;;;7.80;6.10;;;21.50;56.80;;;;;;5116798;28;20446;-75
2021/06/14 06:53:47;;;;;;;8.43;5.47;;;21.80;56.60;;;;;;5116308;28;20454;-75
2021/06/14 06:56:14;;;;;;;8.80;5.20;;;22.00;56.20;;;;;;5116598;28;20439;-75
2021/06/14 06:58:41;;;;;;;9.20;6.10;;;22.20;55.60;;;;;;5116524;28;20450;-75
2021/06/14 07:01:07;;;;;;;8.10;5.40;;;22.40;54.60;;;;;;5116401;28;20470;-75
2021/06/14 07:03:35;;;;;;;6.67;5.40;;;22.60;53.60;;;;;;5116418;28;20423;-76
2021/06/14 07:06:01;;;;;;;11.73;6.33;;;22.80;52.80;;;;;;5116241;28;20435;-74
2021/06/14 07:08:28;;;;;;;6.00;5.40;;;22.90;51.60;;;;;;5116102;28;20434;-74
2021/06/14 07:10:56;;;;;;;8.50;5.20;;;23.10;51.10;;;;;;5116024;28;20897;-73
2021/06/14 07:13:23;;;;;;;8.00;5.60;;;23.30;51.50;;;;;;5116027;28;20917;-74
2021/06/14 07:15:50;;;;;;;8.10;4.83;;;23.50;50.90;;;;;;5115769;28;20478;-74
2021/06/14 07:18:17;;;;;;;9.30;5.77;;;23.70;50.90;;;;;;5116153;28;20530;-74
2021/06/14 07:20:43;;;;;;;6.33;5.63;;;23.80;49.80;;;;;;5116112;28;20443;-74
2021/06/14 07:23:10;;;;;;;9.13;5.00;;;24.00;49.90;;;;;;5115954;28;20459;-74
2021/06/14 07:25:37;;;;;;;8.20;5.50;;;24.20;49.80;;;;;;5116058;28;20474;-75
2021/06/14 07:28:05;;;;;;;19.27;5.70;;;24.40;49.30;;;;;;5115941;28;20431;-74
2021/06/14 07:30:33;;;;;;;8.13;5.90;;;24.60;49.20;;;;;;5115921;28;20488;-74
2021/06/14 07:33:00;;;;;;;8.93;5.80;;;24.90;48.70;;;;;;5115950;28;20424;-75
2021/06/14 07:35:27;;;;;;;7.33;5.53;;;25.00;46.40;;;;;;5115836;28;20482;-74
2021/06/14 07:37:54;;;;;;;7.70;5.33;;;25.00;45.70;;;;;;5115833;28;20443;-75
2021/06/14 07:40:21;;;;;;;8.97;5.30;;;25.10;46.20;;;;;;5115855;28;20423;-76
2021/06/14 07:42:47;;;;;;;6.30;5.20;;;25.20;45.90;;;;;;5115326;28;20478;-75
2021/06/14 07:45:23;;;;;;;5.77;4.97;;;25.20;45.50;;;;;;5115571;28;20463;-74
2021/06/14 07:47:50;;;;;;;13.20;5.13;;;25.20;45.00;;;;;;5115615;28;20427;-75
2021/06/14 07:50:18;;;;;;;5.67;5.07;;;25.30;44.60;;;;;;5115493;28;20443;-75
2021/06/14 07:52:44;;;;;;;7.43;4.20;;;25.50;44.80;;;;;;5115238;28;20458;-76
2021/06/14 07:55:13;;;;;;;7.60;5.57;;;25.40;44.30;;;;;;5115062;28;20468;-76
2021/06/14 07:57:40;;;;;;;11.43;4.53;;;25.40;43.70;;;;;;5115357;28;20446;-75
2021/06/14 08:00:13;;;;;;;13.30;5.03;;;25.30;43.50;;;;;;5115078;28;20951;-76
2021/06/14 08:02:41;;;;;;;8.23;4.70;;;25.40;44.40;;;;;;5115171;28;20474;-76
2021/06/14 08:05:09;;;;;;;8.73;4.60;;;25.30;44.60;;;;;;5115038;28;20512;-75
2021/06/14 08:07:36;;;;;;;6.00;4.67;;;25.50;45.20;;;;;;5115156;28;20447;-75
2021/06/14 08:10:05;;;;;;;9.97;4.50;;;25.60;43.90;;;;;;5115410;28;20470;-76
2021/06/14 08:12:35;;;;;;;8.10;4.47;;;25.80;43.10;;;;;;5115094;28;20439;-76
2021/06/14 08:15:02;;;;;;;5.50;4.53;;;25.90;42.90;;;;;;5114921;28;20528;-76
2021/06/14 08:17:30;;;;;;;7.00;4.53;;;26.20;42.70;;;;;;5114978;28;20427;-76
2021/06/14 08:20:01;;;;;;;6.43;4.27;;;26.50;42.60;;;;;;5114966;28;20438;-74
2021/06/14 08:22:50;;;;;;;8.00;4.70;;;26.70;41.40;;;;;;5114494;28;20498;-74
2021/06/14 08:25:16;;;;;;;4.40;3.40;;;26.90;40.40;;;;;;5114770;28;20808;-74
2021/06/14 08:27:46;;;;;;;8.30;4.30;;;27.00;39.00;;;;;;5114739;28;20497;-76
2021/06/14 08:30:15;;;;;;;5.40;3.80;;;27.20;38.30;;;;;;5114730;28;20258;-75
2021/06/14 08:32:43;;;;;;;5.90;4.43;;;27.30;38.00;;;;;;5114713;28;20426;-74
2021/06/14 08:35:15;;;;;;;8.20;4.77;;;27.50;38.50;;;;;;5114532;28;20459;-75
2021/06/14 08:37:42;;;;;;;6.63;3.80;;;27.80;36.50;;;;;;5114231;28;20936;-75
2021/06/14 08:40:11;;;;;;;5.97;4.10;;;28.00;37.50;;;;;;5114559;28;20438;-75
2021/06/14 08:42:38;;;;;;;5.13;3.40;;;28.10;37.00;;;;;;5114388;28;20826;-74
2021/06/14 08:45:06;;;;;;;8.77;4.70;;;28.10;36.40;;;;;;5114019;28;20465;-74
2021/06/14 08:47:36;;;;;;;10.80;4.60;;;28.30;35.90;;;;;;5113678;28;20446;-76
2021/06/14 08:50:04;;;;;;;5.30;4.73;;;28.40;36.00;;;;;;5114044;28;20443;-74
2021/06/14 08:52:33;;;;;;;6.37;3.83;;;28.40;38.00;;;;;;5114198;28;20430;-74
2021/06/14 08:55:00;;;;;;;7.17;4.03;;;28.50;36.80;;;;;;5114313;28;20477;-76
2021/06/14 08:57:27;;;;;;;7.10;4.27;;;28.70;36.30;;;;;;5114220;28;20439;-74
2021/06/14 08:59:54;;;;;;;8.33;4.47;;;29.00;36.00;;;;;;5114270;28;20439;-75
2021/06/14 09:02:20;;;;;;;7.27;4.00;;;29.10;33.30;;;;;;5114758;28;20912;-76
2021/06/14 09:04:47;;;;;;;8.13;4.00;;;29.20;33.20;;;;;;5113875;28;20465;-77
2021/06/14 09:07:14;;;;;;;7.47;3.03;;;29.40;33.30;;;;;;5113563;28;20438;-75
2021/06/14 09:09:43;;;;;;;5.00;3.73;;;29.60;32.80;;;;;;5114504;28;20832;-76
2021/06/14 09:12:10;;;;;;;5.00;3.33;;;30.00;34.50;;;;;;5114103;28;20423;-76
2021/06/14 09:14:40;;;;;;;6.77;4.00;;;30.30;33.10;;;;;;5113710;28;20877;-76
2021/06/14 09:17:10;;;;;;;6.90;3.77;;;30.40;32.00;;;;;;5114117;28;20427;-76
2021/06/14 09:19:40;;;;;;;5.77;3.70;;;30.50;31.00;;;;;;5113755;28;20423;-76
2021/06/14 09:22:18;;;;;;;5.40;3.70;;;30.60;30.00;;;;;;5113948;28;20494;-76
2021/06/14 09:25:15;;;;;;;8.73;4.43;;;30.70;30.90;;;;;;5114047;28;20470;-76
2021/06/14 09:27:43;;;;;;;4.60;3.50;;;30.90;32.10;;;;;;5114435;28;20423;-76
2021/06/14 09:30:19;;;;;;;4.20;3.80;;;31.00;32.40;;;;;;5114256;28;20423;-76
2021/06/14 09:32:55;;;;;;;4.93;3.40;;;31.20;29.40;;;;;;5113540;28;20774;-76
2021/06/14 09:35:24;;;;;;;5.60;3.43;;;31.40;29.60;;;;;;5113819;28;20462;-76
2021/06/14 09:38:03;;;;;;;5.83;4.10;;;31.70;28.90;;;;;;5113772;28;20441;-75
2021/06/14 09:40:35;;;;;;;4.20;2.70;;;31.90;28.40;;;;;;5113997;28;20842;-76
2021/06/14 09:43:04;;;;;;;5.47;3.87;;;32.10;28.50;;;;;;5114013;28;20462;-75
2021/06/14 09:45:31;;;;;;;4.40;3.27;;;32.40;27.50;;;;;;5113390;28;20463;-75
2021/06/14 09:47:58;;;;;;;5.83;3.87;;;32.70;27.40;;;;;;5114047;28;20453;-76
2021/06/14 09:50:28;;;;;;;6.13;3.40;;;33.00;26.80;;;;;;5115755;28;20431;-75
2021/06/14 09:53:10;;;;;;;5.10;3.63;;;33.00;26.40;;;;;;5113538;28;20454;-75
2021/06/14 09:55:39;;;;;;;5.97;3.60;;;33.20;27.50;;;;;;5113842;28;20473;-75
2021/06/14 09:58:14;;;;;;;4.43;3.57;;;33.20;26.10;;;;;;5113770;28;20426;-76
2021/06/14 10:00:55;;;;;;;5.63;3.30;;;33.30;25.60;;;;;;5113598;28;20458;-76
2021/06/14 10:03:24;;;;;;;4.90;3.73;;;33.50;27.10;;;;;;5113573;28;20462;-74
2021/06/14 10:05:54;;;;;;;6.40;3.63;;;33.90;27.20;;;;;;5113612;28;20518;-76
2021/06/14 10:08:29;;;;;;;5.87;3.43;;;34.40;26.70;;;;;;5113270;28;20797;-75
2021/06/14 10:11:11;;;;;;;6.17;4.03;;;34.70;25.00;;;;;;5113684;28;20509;-74
2021/06/14 10:13:40;;;;;;;8.90;4.00;;;35.00;23.70;;;;;;5113600;28;20843;-75
2021/06/14 10:16:10;;;;;;;5.83;3.40;;;34.90;23.60;;;;;;5113757;28;20475;-77
2021/06/14 10:18:39;;;;;;;7.83;3.70;;;35.10;23.50;;;;;;5116039;28;20423;-74
2021/06/14 10:21:09;;;;;;;5.13;3.60;;;35.30;24.30;;;;;;5117154;28;20445;-75
2021/06/14 10:23:38;;;;;;;6.60;3.63;;;35.60;23.30;;;;;;5117396;28;20838;-75
2021/06/14 10:26:06;;;;;;;6.07;3.50;;;36.10;23.00;;;;;;5117211;28;20426;-75
2021/06/14 10:28:33;;;;;;;8.97;3.73;;;36.60;23.10;;;;;;5117169;28;20442;-76
2021/06/14 10:30:59;;;;;;;5.70;3.60;;;37.00;23.30;;;;;;5117085;28;20570;-74
2021/06/14 10:33:28;;;;;;;6.60;3.37;;;37.20;22.10;;;;;;5116982;28;20204;-76
2021/06/14 10:35:56;;;;;;;4.97;3.27;;;37.60;22.10;;;;;;5116977;28;20225;-76
2021/06/14 10:38:24;;;;;;;7.03;3.57;;;38.10;22.00;;;;;;5116896;28;20650;-75
2021/06/14 10:40:53;;;;;;;4.17;3.40;;;38.40;20.50;;;;;;5116916;28;20287;-75
2021/06/14 10:43:26;;;;;;;7.33;3.40;;;38.70;19.80;;;;;;5116816;28;20296;-75
2021/06/14 10:45:55;;;;;;;4.43;3.08;;;39.30;19.70;;;;;;5117489;28;20759;-75
2021/06/14 10:48:31;;;;;;;6.57;3.65;;;39.80;20.10;;;;;;5116540;28;20685;-75
2021/06/14 10:51:00;;;;;;;5.10;3.38;;;39.70;18.30;;;;;;5117781;28;20188;-76
2021/06/14 10:53:28;;;;;;;6.20;3.17;;;39.60;18.10;;;;;;5116774;28;20206;-77
2021/06/14 10:55:57;;;;;;;6.40;3.15;;;39.70;18.60;;;;;;5118486;28;20243;-78
2021/06/14 10:58:32;;;;;;;12.82;3.95;;;40.00;18.20;;;;;;5116968;28;20208;-76
2021/06/14 11:01:00;;;;;;;12.48;3.50;;;40.50;18.90;;;;;;5116116;28;20642;-76
2021/06/14 11:03:42;;;;;;;4.32;2.70;;;40.80;17.30;;;;;;5116105;28;20650;-76
2021/06/14 11:06:20;;;;;;;6.95;3.25;;;41.10;18.40;;;;;;5116578;28;20189;-76
2021/06/14 11:09:02;;;;;;;8.15;3.30;;;41.50;16.60;;;;;;5116339;28;20192;-77
2021/06/14 11:11:31;;;;;;;6.93;3.10;;;41.70;16.40;;;;;;5116294;28;20257;-75
2021/06/14 11:13:59;;;;;;;5.82;2.95;;;42.10;16.30;;;;;;5116290;28;20247;-75
2021/06/14 11:16:37;;;;;;;7.15;3.67;;;42.60;16.10;;;;;;5116148;28;20204;-76
2021/06/14 11:19:04;;;;;;;3.53;3.13;;;43.00;15.90;;;;;;5116730;28;20283;-76
2021/06/14 11:21:31;;;;;;;4.78;3.13;;;43.50;16.90;;;;;;5116110;28;20699;-77
2021/06/14 11:24:07;;;;;;;9.20;3.35;;;43.90;15.80;;;;;;5116541;28;20604;-75
2021/06/14 11:26:34;;;;;;;5.43;3.08;;;44.40;16.30;;;;;;5116562;28;20192;-76
2021/06/14 11:29:13;;;;;;;8.27;3.78;;;44.90;15.60;;;;;;5115701;28;20283;-76
2021/06/14 11:31:40;;;;;;;10.57;3.38;;;45.10;13.50;;;;;;5116125;28;20188;-76
2021/06/14 11:34:18;;;;;;;7.53;3.65;;;44.80;14.60;;;;;;5116208;28;20213;-76
2021/06/14 11:36:55;;;;;;;6.25;3.53;;;45.00;14.50;;;;;;5115890;28;20181;-76
2021/06/14 11:39:23;;;;;;;7.35;3.47;;;44.60;14.10;;;;;;5116145;28;20188;-76
2021/06/14 11:41:52;;;;;;;10.75;3.30;;;44.80;15.40;;;;;;5117193;28;20207;-77
2021/06/14 11:44:23;;;;;;;5.82;2.90;;;45.10;14.70;;;;;;5118086;28;20232;-77
2021/06/14 11:46:51;;;;;;;6.88;3.22;;;45.50;14.70;;;;;;5118113;28;20184;-77
2021/06/14 11:49:18;;;;;;;7.13;3.35;;;45.90;14.00;;;;;;5119721;28;20209;-77
2021/06/14 11:51:45;;;;;;;8.02;3.67;;;46.10;13.80;;;;;;5117535;28;20188;-77
2021/06/14 11:54:16;;;;;;;7.03;2.75;;;46.40;14.10;;;;;;5118999;28;20225;-77
2021/06/14 11:56:43;;;;;;;9.43;3.50;;;46.60;13.80;;;;;;5119123;28;20188;-77
2021/06/14 11:59:09;;;;;;;6.88;3.55;;;46.60;13.30;;;;;;5116897;28;20195;-77
2021/06/14 12:01:39;;;;;;;11.07;3.58;;;46.60;14.50;;;;;;5117344;28;20295;-77
2021/06/14 12:04:08;;;;;;;9.30;3.65;;;46.10;14.90;;;;;;5116339;28;20220;-76
2021/06/14 12:06:43;;;;;;;6.55;2.97;;;46.20;14.60;;;;;;5116401;28;20201;-77
2021/06/14 12:09:10;;;;;;;4.05;3.13;;;46.40;15.20;;;;;;5115420;28;20269;-76
2021/06/14 12:11:37;;;;;;;7.60;2.80;;;46.50;14.10;;;;;;5115573;28;20200;-76
2021/06/14 12:14:11;;;;;;;6.15;3.00;;;46.60;15.40;;;;;;5115693;28;20310;-76
2021/06/14 12:16:39;;;;;;;8.80;3.05;;;46.80;14.50;;;;;;5115545;28;20189;-78
2021/06/14 12:19:06;;;;;;;4.25;2.83;;;46.90;14.20;;;;;;5115250;28;20205;-77
2021/06/14 12:21:33;;;;;;;6.18;3.45;;;46.90;14.00;;;;;;5114976;28;20578;-76
2021/06/14 12:24:01;;;;;;;6.55;3.13;;;46.90;14.90;;;;;;5115555;28;20227;-77
2021/06/14 12:26:38;;;;;;;3.60;3.17;;;46.70;14.40;;;;;;5115346;28;20189;-76
2021/06/14 12:29:05;;;;;;;6.05;3.17;;;46.60;14.70;;;;;;5115825;28;20223;-76
2021/06/14 12:31:32;;;;;;;6.32;3.35;;;46.40;14.70;;;;;;5115557;28;20203;-77
2021/06/14 12:34:00;;;;;;;8.27;3.47;;;46.60;15.20;;;;;;5114782;28;20212;-76
2021/06/14 12:36:27;;;;;;;5.35;3.35;;;47.10;14.90;;;;;;5114767;28;20195;-77
2021/06/14 12:38:55;;;;;;;5.20;3.42;;;47.20;13.70;;;;;;5114662;28;20226;-77
2021/06/14 12:41:22;;;;;;;4.80;3.00;;;46.90;13.80;;;;;;5114719;28;20535;-77
2021/06/14 12:43:49;;;;;;;7.07;3.63;;;46.90;14.00;;;;;;5114561;28;20224;-76
2021/06/14 12:46:16;;;;;;;7.78;3.10;;;46.80;14.80;;;;;;5114225;28;20570;-78
2021/06/14 12:48:46;;;;;;;6.32;3.08;;;46.90;14.30;;;;;;5114808;28;20596;-76
2021/06/14 12:51:14;;;;;;;5.45;3.00;;;47.20;14.30;;;;;;5115097;28;20200;-76
2021/06/14 12:53:42;;;;;;;6.68;3.60;;;47.70;15.30;;;;;;5114008;28;20236;-76
2021/06/14 12:56:14;;;;;;;3.25;2.88;;;48.30;14.00;;;;;;5115122;28;20204;-77